createdAt,value
2023-01-13T00:01:11.578Z,100212.06
2023-01-13T00:03:38.576Z,100260.19
2023-01-13T00:06:06.342Z,100267.91
2023-01-13T00:08:33.497Z,100260.03
2023-01-13T00:11:00.353Z,100269.44
2023-01-13T00:13:26.923Z,100242.06
2023-01-13T00:16:01.023Z,100259.19
2023-01-13T00:18:28.267Z,100257.34
2023-01-13T00:21:03.015Z,100236.81
2023-01-13T00:23:31.794Z,100236.94
2023-01-13T00:26:00.533Z,100257.72
2023-01-13T00:28:27.026Z,100242.03
2023-01-13T00:30:53.794Z,100241.91
2023-01-13T00:33:20.542Z,100231.69
2023-01-13T00:35:57.012Z,100221.41
2023-01-13T00:38:23.762Z,100239.44
2023-01-13T00:41:07.973Z,100251.59
2023-01-13T00:43:36.171Z,100251.56
2023-01-13T00:46:04.362Z,100250.63
2023-01-13T00:48:32.516Z,100221.69
2023-01-13T00:51:02.045Z,100215.47
2023-01-13T00:53:29.704Z,100232.69
2023-01-13T00:56:04.677Z,100220.09
2023-01-13T00:58:33.112Z,100256.00
2023-01-13T01:01:04.770Z,100233.84
2023-01-13T01:03:31.428Z,100243.16
2023-01-13T01:06:04.473Z,100259.50
2023-01-13T01:08:31.016Z,100234.78
2023-01-13T01:11:05.630Z,100247.41
2023-01-13T01:13:32.428Z,100226.91
2023-01-13T01:15:59.424Z,100235.34
2023-01-13T01:18:26.212Z,100220.06
2023-01-13T01:20:52.677Z,100236.38
2023-01-13T01:23:19.215Z,100235.50
2023-01-13T01:25:45.707Z,100209.75
2023-01-13T01:28:12.319Z,100209.88
2023-01-13T01:30:39.631Z,100235.56
2023-01-13T01:33:06.387Z,100244.19
2023-01-13T01:35:32.869Z,100231.25
2023-01-13T01:37:59.408Z,100237.28
2023-01-13T01:40:27.043Z,100234.81
2023-01-13T01:43:12.256Z,100242.59
2023-01-13T01:45:38.767Z,100242.47
2023-01-13T01:48:07.161Z,100219.56
2023-01-13T01:50:35.106Z,100252.19
2023-01-13T01:53:14.217Z,100242.63
2023-01-13T01:55:41.292Z,100222.19
2023-01-13T01:58:13.137Z,100263.25
2023-01-13T02:00:42.182Z,100277.94
2023-01-13T02:03:10.012Z,100274.50
2023-01-13T02:05:36.602Z,100269.28
2023-01-13T02:08:03.957Z,100262.53
2023-01-13T02:10:32.267Z,100263.41
2023-01-13T02:13:06.250Z,100268.56
2023-01-13T02:15:48.245Z,100271.16
2023-01-13T02:18:20.826Z,100280.50
2023-01-13T02:21:10.894Z,100281.38
2023-01-13T02:24:17.985Z,100277.06
2023-01-13T02:27:11.635Z,100275.53
2023-01-13T02:30:15.915Z,100237.78
2023-01-13T02:32:45.658Z,100286.72
2023-01-13T02:35:30.474Z,100274.59
2023-01-13T02:38:00.557Z,100196.91
2023-01-13T02:40:39.125Z,100294.53
2023-01-13T02:43:31.107Z,100284.19
2023-01-13T02:46:05.076Z,100284.22
2023-01-13T02:48:32.325Z,100283.34
2023-01-13T02:51:10.097Z,100284.19
2023-01-13T02:54:02.583Z,100297.16
2023-01-13T02:56:30.473Z,100294.38
2023-01-13T02:58:59.539Z,100272.13
2023-01-13T03:01:26.391Z,100291.09
2023-01-13T03:03:52.951Z,100292.78
2023-01-13T03:06:39.225Z,100270.56
2023-01-13T03:09:19.390Z,100303.00
2023-01-13T03:12:04.448Z,100274.13
2023-01-13T03:14:43.753Z,100315.19
2023-01-13T03:17:19.171Z,100310.91
2023-01-13T03:20:11.909Z,100318.72
2023-01-13T03:22:48.700Z,100313.50
2023-01-13T03:25:26.208Z,100304.88
2023-01-13T03:28:02.346Z,100301.28
2023-01-13T03:30:44.766Z,100292.75
2023-01-13T03:33:23.904Z,100304.75
2023-01-13T03:35:54.421Z,100305.72
2023-01-13T03:38:28.464Z,100313.59
2023-01-13T03:40:58.831Z,100302.31
2023-01-13T03:43:52.954Z,100291.09
2023-01-13T03:46:29.689Z,100287.56
2023-01-13T03:49:00.120Z,100283.44
2023-01-13T03:51:30.062Z,100303.13
2023-01-13T03:54:00.705Z,100280.06
2023-01-13T03:56:50.010Z,100302.16
2023-01-13T03:59:26.748Z,100294.34
2023-01-13T04:01:59.447Z,100315.78
2023-01-13T04:04:28.861Z,100321.16
2023-01-13T04:07:02.534Z,100316.63
2023-01-13T04:09:45.711Z,100322.81
2023-01-13T04:12:23.297Z,100310.69
2023-01-13T04:14:50.675Z,100311.50
2023-01-13T04:17:18.191Z,100327.28
2023-01-13T04:19:44.780Z,100320.22
2023-01-13T04:22:11.578Z,100327.09
2023-01-13T04:24:38.216Z,100321.25
2023-01-13T04:27:04.731Z,100306.56
2023-01-13T04:29:31.387Z,100312.56
2023-01-13T04:31:57.970Z,100306.47
2023-01-13T04:34:25.834Z,100287.72
2023-01-13T04:36:54.108Z,100319.44
2023-01-13T04:39:20.816Z,100302.19
2023-01-13T04:41:59.633Z,100309.06
2023-01-13T04:44:26.666Z,100311.66
2023-01-13T04:46:53.830Z,100335.94
2023-01-13T04:49:20.541Z,100327.31
2023-01-13T04:51:47.149Z,100351.41
2023-01-13T04:54:13.807Z,100338.63
2023-01-13T04:56:40.389Z,100348.81
2023-01-13T04:59:06.891Z,100347.84
2023-01-13T05:01:33.540Z,100332.25
2023-01-13T05:04:03.243Z,100331.41
2023-01-13T05:06:29.989Z,100354.63
2023-01-13T05:08:57.209Z,100335.84
2023-01-13T05:11:42.324Z,100331.44
2023-01-13T05:14:27.659Z,100325.34
2023-01-13T05:17:03.503Z,100328.88
2023-01-13T05:19:32.552Z,100336.31
2023-01-13T05:22:19.195Z,100347.69
2023-01-13T05:25:04.443Z,100335.78
2023-01-13T05:27:32.041Z,100348.63
2023-01-13T05:29:58.676Z,100349.72
2023-01-13T05:32:28.018Z,100365.97
2023-01-13T05:34:55.949Z,100337.84
2023-01-13T05:37:23.995Z,100359.94
2023-01-13T05:40:09.127Z,100334.25
2023-01-13T05:42:54.288Z,100347.16
2023-01-13T05:45:20.924Z,100341.06
2023-01-13T05:47:47.486Z,100313.81
2023-01-13T05:50:14.074Z,100346.25
2023-01-13T05:52:40.655Z,100334.28
2023-01-13T05:55:07.631Z,100330.91
2023-01-13T05:57:34.104Z,100365.25
2023-01-13T06:00:00.631Z,100334.38
2023-01-13T06:02:27.238Z,100334.38
2023-01-13T06:04:53.850Z,100325.78
2023-01-13T06:07:20.495Z,100353.25
2023-01-13T06:09:47.168Z,100354.03
2023-01-13T06:12:14.413Z,100361.75
2023-01-13T06:14:41.020Z,100335.25
2023-01-13T06:17:12.342Z,100346.25
2023-01-13T06:19:39.633Z,100332.75
2023-01-13T06:22:15.377Z,100373.75
2023-01-13T06:24:48.719Z,100348.34
2023-01-13T06:27:15.531Z,100370.38
2023-01-13T06:29:42.164Z,100351.47
2023-01-13T06:32:21.718Z,100337.94
2023-01-13T06:34:54.149Z,100382.53
2023-01-13T06:37:25.438Z,100350.06
2023-01-13T06:39:58.646Z,100391.31
2023-01-13T06:42:50.283Z,100402.28
2023-01-13T06:45:17.353Z,100417.06
2023-01-13T06:47:44.190Z,100375.06
2023-01-13T06:50:11.360Z,100398.19
2023-01-13T06:52:37.908Z,100424.78
2023-01-13T06:55:04.775Z,100409.34
2023-01-13T06:57:31.240Z,100415.38
2023-01-13T06:59:57.852Z,100411.16
2023-01-13T07:02:24.404Z,100434.34
2023-01-13T07:04:50.941Z,100419.06
2023-01-13T07:07:17.440Z,100424.13
2023-01-13T07:09:44.025Z,100416.31
2023-01-13T07:12:11.769Z,100449.91
2023-01-13T07:14:56.936Z,100439.63
2023-01-13T07:17:25.559Z,100460.91
2023-01-13T07:19:53.265Z,100435.22
2023-01-13T07:22:19.848Z,100448.09
2023-01-13T07:24:46.457Z,100420.69
2023-01-13T07:27:13.156Z,100412.97
2023-01-13T07:29:40.027Z,100435.28
2023-01-13T07:32:08.002Z,100466.19
2023-01-13T07:34:34.568Z,100473.22
2023-01-13T07:37:01.663Z,100460.53
2023-01-13T07:39:28.338Z,100465.63
2023-01-13T07:42:13.314Z,100472.66
2023-01-13T07:44:40.107Z,100502.66
2023-01-13T07:47:08.627Z,100494.00
2023-01-13T07:49:35.172Z,100499.22
2023-01-13T07:52:02.202Z,100538.00
2023-01-13T07:54:40.234Z,100502.81
2023-01-13T07:57:08.080Z,100519.94
2023-01-13T07:59:34.642Z,100531.91
2023-01-13T08:02:01.259Z,100525.94
2023-01-13T08:04:28.103Z,100507.13
2023-01-13T08:06:54.720Z,100541.50
2023-01-13T08:09:21.248Z,100514.91
2023-01-13T08:12:07.932Z,100559.50
2023-01-13T08:14:34.428Z,100572.47
2023-01-13T08:17:00.885Z,100524.50
2023-01-13T08:19:27.550Z,100558.69
2023-01-13T08:21:54.016Z,100573.28
2023-01-13T08:24:20.503Z,100575.03
2023-01-13T08:26:47.067Z,100544.91
2023-01-13T08:29:15.006Z,100557.00
2023-01-13T08:31:41.744Z,100575.00
2023-01-13T08:34:08.281Z,100570.66
2023-01-13T08:36:34.983Z,100567.25
2023-01-13T08:39:01.588Z,100562.16
2023-01-13T08:41:46.958Z,100578.41
2023-01-13T08:44:13.444Z,100601.56
2023-01-13T08:46:41.941Z,100607.63
2023-01-13T08:49:08.632Z,100564.63
2023-01-13T08:51:35.357Z,100579.19
2023-01-13T08:54:02.305Z,100623.97
2023-01-13T08:56:35.180Z,100610.19
2023-01-13T08:59:02.096Z,100622.13
2023-01-13T09:01:29.010Z,100616.25
2023-01-13T09:03:55.920Z,100605.78
2023-01-13T09:06:22.823Z,100607.44
2023-01-13T09:08:49.796Z,100633.25
2023-01-13T09:11:44.740Z,100647.88
2023-01-13T09:14:11.271Z,100630.78
2023-01-13T09:16:37.793Z,100661.66
2023-01-13T09:19:04.397Z,100656.41
2023-01-13T09:21:31.022Z,100664.13
2023-01-13T09:23:57.499Z,100664.19
2023-01-13T09:26:24.017Z,100667.78
2023-01-13T09:28:50.539Z,100668.59
2023-01-13T09:31:17.254Z,100699.44
2023-01-13T09:34:02.513Z,100715.03
2023-01-13T09:36:29.035Z,100704.66
2023-01-13T09:38:55.733Z,100723.56
2023-01-13T09:41:44.202Z,100740.72
2023-01-13T09:44:27.000Z,100693.53
2023-01-13T09:47:00.591Z,100718.47
2023-01-13T09:49:37.674Z,100765.84
2023-01-13T09:52:12.074Z,100767.50
2023-01-13T09:54:44.378Z,100732.28
2023-01-13T09:57:13.479Z,100763.22
2023-01-13T09:59:40.762Z,100800.22
2023-01-13T10:02:28.566Z,100804.50
2023-01-13T10:05:26.767Z,100803.63
2023-01-13T10:07:59.482Z,100781.31
2023-01-13T10:10:46.860Z,100818.19
2023-01-13T10:13:20.125Z,100832.88
2023-01-13T10:15:56.517Z,100810.53
2023-01-13T10:18:33.206Z,100839.75
2023-01-13T10:21:07.425Z,100802.78
2023-01-13T10:24:01.527Z,100833.63
2023-01-13T10:26:31.084Z,100839.59
2023-01-13T10:28:58.268Z,100837.84
2023-01-13T10:31:25.550Z,100821.53
2023-01-13T10:34:06.191Z,100851.59
2023-01-13T10:36:33.805Z,100854.06
2023-01-13T10:39:15.853Z,100823.03
2023-01-13T10:41:44.070Z,100860.84
2023-01-13T10:44:16.363Z,100836.75
2023-01-13T10:46:57.797Z,100829.00
2023-01-13T10:49:36.557Z,100866.84
2023-01-13T10:52:23.592Z,100832.41
2023-01-13T10:54:54.425Z,100866.78
2023-01-13T10:57:26.955Z,100857.19
2023-01-13T10:59:54.878Z,100869.22
2023-01-13T11:02:32.418Z,100882.06
2023-01-13T11:05:16.180Z,100865.09
2023-01-13T11:07:52.473Z,100862.50
2023-01-13T11:10:24.206Z,100893.13
2023-01-13T11:12:59.873Z,100887.06
2023-01-13T11:15:57.654Z,100904.28
2023-01-13T11:19:02.172Z,100880.97
2023-01-13T11:21:36.829Z,100916.06
2023-01-13T11:24:19.443Z,100906.31
2023-01-13T11:27:20.280Z,100910.59
2023-01-13T11:30:03.073Z,100913.75
2023-01-13T11:32:37.255Z,100882.09
2023-01-13T11:35:15.983Z,100936.25
2023-01-13T11:37:47.746Z,100944.81
2023-01-13T11:40:32.843Z,100924.31
2023-01-13T11:44:04.365Z,100949.16
2023-01-13T11:46:32.947Z,100950.97
2023-01-13T11:49:00.934Z,100951.69
2023-01-13T11:51:46.756Z,100947.34
2023-01-13T11:54:34.241Z,100957.75
2023-01-13T11:57:09.801Z,100949.88
2023-01-13T12:00:02.537Z,100930.22
2023-01-13T12:02:48.770Z,100967.78
2023-01-13T12:05:23.912Z,100979.84
2023-01-13T12:08:02.627Z,100961.47
2023-01-13T12:10:59.683Z,100944.28
2023-01-13T12:13:46.952Z,100929.44
2023-01-13T12:16:31.622Z,100949.41
2023-01-13T12:19:18.551Z,100968.72
2023-01-13T12:22:07.886Z,100955.81
2023-01-13T12:25:05.418Z,100970.56
2023-01-13T12:27:47.827Z,100970.56
2023-01-13T12:30:22.596Z,100977.56
2023-01-13T12:32:52.037Z,100958.97
2023-01-13T12:35:40.198Z,100979.69
2023-01-13T12:38:35.962Z,100993.66
2023-01-13T12:41:38.788Z,100995.56
2023-01-13T12:44:17.175Z,100990.19
2023-01-13T12:46:56.217Z,101008.22
2023-01-13T12:49:25.770Z,101011.53
2023-01-13T12:51:52.509Z,101005.41
2023-01-13T12:54:51.329Z,101015.88
2023-01-13T12:57:24.137Z,100996.72
2023-01-13T12:59:59.591Z,101001.91
2023-01-13T13:02:28.145Z,100988.22
2023-01-13T13:04:58.811Z,100998.50
2023-01-13T13:07:40.381Z,100984.97
2023-01-13T13:10:30.187Z,101008.94
2023-01-13T13:13:18.069Z,101011.56
2023-01-13T13:15:47.364Z,101017.72
2023-01-13T13:18:16.907Z,101010.84
2023-01-13T13:21:10.174Z,101016.06
2023-01-13T13:23:47.776Z,101016.00
2023-01-13T13:26:14.301Z,101012.56
2023-01-13T13:28:48.912Z,101016.06
2023-01-13T13:31:20.507Z,101010.97
2023-01-13T13:34:14.485Z,101031.59
2023-01-13T13:36:56.167Z,101021.09
2023-01-13T13:39:51.559Z,101024.53
2023-01-13T13:42:57.336Z,100997.00
2023-01-13T13:45:45.041Z,100995.38
2023-01-13T13:48:30.617Z,101032.19
2023-01-13T13:51:03.984Z,101032.22
2023-01-13T13:53:35.083Z,101001.59
2023-01-13T13:56:08.145Z,101030.97
2023-01-13T13:58:37.034Z,101028.28
2023-01-13T14:01:05.366Z,101043.47
2023-01-13T14:03:35.175Z,101034.16
2023-01-13T14:06:04.577Z,101021.31
2023-01-13T14:08:34.997Z,101038.59
2023-01-13T14:11:01.914Z,101056.59
2023-01-13T14:13:31.753Z,101069.56
2023-01-13T14:16:02.964Z,101067.84
2023-01-13T14:18:32.907Z,101059.38
2023-01-13T14:21:19.610Z,101065.31
2023-01-13T14:24:01.856Z,101087.91
2023-01-13T14:26:31.361Z,101091.25
2023-01-13T14:29:00.991Z,101071.31
2023-01-13T14:31:28.234Z,101073.19
2023-01-13T14:33:57.713Z,101094.75
2023-01-13T14:36:33.849Z,101094.72
2023-01-13T14:39:03.466Z,101099.00
2023-01-13T14:41:35.079Z,101070.75
2023-01-13T14:44:08.266Z,101094.03
2023-01-13T14:46:38.753Z,101099.06
2023-01-13T14:49:05.759Z,101126.03
2023-01-13T14:51:32.351Z,101117.41
2023-01-13T14:53:59.728Z,101086.53
2023-01-13T14:56:42.700Z,101129.69
2023-01-13T14:59:39.962Z,101142.69
2023-01-13T15:02:25.024Z,101150.56
2023-01-13T15:04:58.697Z,101127.50
2023-01-13T15:07:28.176Z,101163.72
2023-01-13T15:10:04.768Z,101127.59
2023-01-13T15:12:39.264Z,101160.38
2023-01-13T15:15:20.263Z,101176.09
2023-01-13T15:17:47.245Z,101175.28
2023-01-13T15:20:15.559Z,101188.38
2023-01-13T15:22:42.162Z,101168.75
2023-01-13T15:25:11.706Z,101188.59
2023-01-13T15:27:38.884Z,101170.81
2023-01-13T15:30:25.854Z,101199.25
2023-01-13T15:32:57.877Z,101181.34
2023-01-13T15:35:27.560Z,101221.94
2023-01-13T15:37:56.336Z,101213.28
2023-01-13T15:40:25.937Z,101226.47
2023-01-13T15:43:10.706Z,101200.78
2023-01-13T15:45:56.333Z,101232.75
2023-01-13T15:48:24.928Z,101236.34
2023-01-13T15:50:54.720Z,101253.69
2023-01-13T15:53:21.534Z,101271.94
2023-01-13T15:55:52.164Z,101274.59
2023-01-13T15:58:21.257Z,101240.13
2023-01-13T16:00:47.843Z,101234.19
2023-01-13T16:03:15.418Z,101267.94
2023-01-13T16:05:43.443Z,101277.47
2023-01-13T16:08:18.212Z,101259.44
2023-01-13T16:10:45.630Z,101288.81
2023-01-13T16:13:12.905Z,101299.28
2023-01-13T16:15:45.938Z,101266.59
2023-01-13T16:18:26.161Z,101308.13
2023-01-13T16:20:55.184Z,101323.75
2023-01-13T16:23:22.773Z,101296.19
2023-01-13T16:25:51.405Z,101325.56
2023-01-13T16:28:24.348Z,101294.56
2023-01-13T16:30:54.133Z,101338.63
2023-01-13T16:33:20.637Z,101314.47
2023-01-13T16:36:10.529Z,101324.91
2023-01-13T16:38:33.876Z,101342.31
2023-01-13T16:41:00.673Z,101315.66
2023-01-13T16:43:27.814Z,101331.22
2023-01-13T16:45:54.572Z,101314.03
2023-01-13T16:48:22.988Z,101352.06
2023-01-13T16:50:49.764Z,101365.97
2023-01-13T16:53:16.598Z,101347.09
2023-01-13T16:55:43.885Z,101379.03
2023-01-13T16:58:19.688Z,101377.31
2023-01-13T17:00:47.630Z,101359.19
2023-01-13T17:03:15.935Z,101402.44
2023-01-13T17:05:44.718Z,101369.59
2023-01-13T17:08:18.017Z,101394.69
2023-01-13T17:10:48.083Z,101410.25
2023-01-13T17:13:16.784Z,101380.03
2023-01-13T17:15:45.316Z,101381.75
2023-01-13T17:18:13.623Z,101370.56
2023-01-13T17:20:40.718Z,101381.84
2023-01-13T17:23:07.420Z,101399.97
2023-01-13T17:25:34.096Z,101390.50
2023-01-13T17:28:00.812Z,101383.59
2023-01-13T17:30:27.450Z,101391.41
2023-01-13T17:32:54.037Z,101410.44
2023-01-13T17:35:24.718Z,101415.66
2023-01-13T17:37:54.511Z,101422.56
2023-01-13T17:40:21.167Z,101419.97
2023-01-13T17:42:47.663Z,101407.03
2023-01-13T17:45:14.479Z,101400.97
2023-01-13T17:47:41.130Z,101407.03
2023-01-13T17:50:08.282Z,101392.34
2023-01-13T17:52:34.948Z,101394.09
2023-01-13T17:55:01.472Z,101400.16
2023-01-13T17:57:28.367Z,101402.78
2023-01-13T17:59:55.008Z,101392.41
2023-01-13T18:02:24.596Z,101399.31
2023-01-13T18:04:51.379Z,101362.13
2023-01-13T18:07:17.892Z,101404.53
2023-01-13T18:09:44.429Z,101373.41
2023-01-13T18:12:11.628Z,101407.16
2023-01-13T18:14:38.206Z,101414.06
2023-01-13T18:17:04.768Z,101411.47
2023-01-13T18:19:49.922Z,101404.53
2023-01-13T18:22:34.727Z,101429.63
2023-01-13T18:25:21.857Z,101422.72
2023-01-13T18:27:48.950Z,101370.84
2023-01-13T18:30:15.981Z,101406.28
2023-01-13T18:32:42.553Z,101401.09
2023-01-13T18:35:10.496Z,101404.56
2023-01-13T18:37:40.107Z,101447.78
2023-01-13T18:40:10.036Z,101450.41
2023-01-13T18:42:56.483Z,101432.28
2023-01-13T18:45:31.765Z,101449.56
2023-01-13T18:48:00.746Z,101456.50
2023-01-13T18:50:28.345Z,101453.03
2023-01-13T18:52:55.621Z,101464.25
2023-01-13T18:55:22.594Z,101456.50
2023-01-13T18:57:49.637Z,101443.53
2023-01-13T19:00:19.277Z,101460.81
2023-01-13T19:02:47.445Z,101465.16
2023-01-13T19:05:14.485Z,101464.28
2023-01-13T19:07:41.287Z,101472.06
2023-01-13T19:10:09.816Z,101464.28
2023-01-13T19:12:36.726Z,101485.03
2023-01-13T19:15:03.625Z,101466.03
2023-01-13T19:17:33.355Z,101458.22
2023-01-13T19:20:01.356Z,101471.19
2023-01-13T19:22:34.952Z,101493.66
2023-01-13T19:25:03.178Z,101490.22
2023-01-13T19:27:30.484Z,101486.78
2023-01-13T19:30:03.613Z,101467.75
2023-01-13T19:32:32.591Z,101481.56
2023-01-13T19:34:59.565Z,101459.94
2023-01-13T19:37:32.854Z,101450.41
2023-01-13T19:39:59.552Z,101485.00
2023-01-13T19:42:45.811Z,101461.63
2023-01-13T19:45:29.341Z,101490.16
2023-01-13T19:47:57.427Z,101506.63
2023-01-13T19:50:24.782Z,101448.66
2023-01-13T19:52:51.606Z,101455.53
2023-01-13T19:55:19.823Z,101518.69
2023-01-13T19:57:46.512Z,101487.50
2023-01-13T20:00:16.930Z,101490.97
2023-01-13T20:02:49.083Z,101499.63
2023-01-13T20:05:25.866Z,101434.75
2023-01-13T20:07:53.160Z,101450.38
2023-01-13T20:10:21.349Z,101470.19
2023-01-13T20:12:48.118Z,101477.13
2023-01-13T20:15:14.961Z,101486.63
2023-01-13T20:17:41.792Z,101458.06
2023-01-13T20:20:10.078Z,101459.78
2023-01-13T20:22:39.248Z,101480.56
2023-01-13T20:25:06.245Z,101490.06
2023-01-13T20:27:32.926Z,101448.56
2023-01-13T20:29:59.575Z,101461.53
2023-01-13T20:32:26.234Z,101432.97
2023-01-13T20:34:52.800Z,101457.19
2023-01-13T20:37:19.339Z,101454.59
2023-01-13T20:39:46.904Z,101399.25
2023-01-13T20:42:32.947Z,101399.25
2023-01-13T20:45:00.262Z,101416.53
2023-01-13T20:47:28.200Z,101445.13
2023-01-13T20:49:54.881Z,101387.22
2023-01-13T20:52:21.431Z,101409.69
2023-01-13T20:54:48.022Z,101392.41
2023-01-13T20:57:14.645Z,101407.97
2023-01-13T20:59:41.294Z,101410.56
2023-01-13T21:02:13.183Z,101395.00
2023-01-13T21:04:40.071Z,101395.91
2023-01-13T21:07:07.259Z,101369.09
2023-01-13T21:09:33.870Z,101386.41
2023-01-13T21:12:18.969Z,101393.31
2023-01-13T21:15:04.321Z,101352.69
2023-01-13T21:17:49.451Z,101386.38
2023-01-13T21:20:16.276Z,101406.28
2023-01-13T21:22:48.301Z,101376.88
2023-01-13T21:25:16.579Z,101390.72
2023-01-13T21:27:46.011Z,101401.97
2023-01-13T21:30:17.802Z,101417.53
2023-01-13T21:32:45.323Z,101425.28
2023-01-13T21:35:13.555Z,101425.28
2023-01-13T21:37:42.053Z,101396.75
2023-01-13T21:40:10.194Z,101365.63
2023-01-13T21:42:55.422Z,101405.41
2023-01-13T21:45:40.536Z,101402.81
2023-01-13T21:48:07.224Z,101404.53
2023-01-13T21:50:34.098Z,101399.34
2023-01-13T21:53:01.695Z,101387.22
2023-01-13T21:55:28.425Z,101373.38
2023-01-13T21:57:59.375Z,101414.88
2023-01-13T22:00:29.505Z,101407.09
2023-01-13T22:02:56.601Z,101420.03
2023-01-13T22:05:24.749Z,101430.38
2023-01-13T22:07:51.715Z,101390.63
2023-01-13T22:10:24.224Z,101422.63
2023-01-13T22:13:00.331Z,101411.41
2023-01-13T22:15:29.018Z,101397.56
2023-01-13T22:17:56.747Z,101397.56
2023-01-13T22:20:23.686Z,101382.88
2023-01-13T22:22:50.451Z,101323.25
2023-01-13T22:25:19.990Z,101337.09
2023-01-13T22:27:48.198Z,101356.97
2023-01-13T22:30:18.322Z,101349.22
2023-01-13T22:32:45.590Z,101332.81
2023-01-13T22:35:14.241Z,101304.31
2023-01-13T22:37:41.503Z,101357.06
2023-01-13T22:40:13.320Z,101341.53
2023-01-13T22:42:41.556Z,101347.56
2023-01-13T22:45:11.232Z,101347.56
2023-01-13T22:47:38.987Z,101326.84
2023-01-13T22:50:07.079Z,101321.66
2023-01-13T22:52:35.059Z,101324.25
2023-01-13T22:55:01.839Z,101308.72
2023-01-13T22:57:36.433Z,101314.75
2023-01-13T23:00:14.855Z,101259.47
2023-01-13T23:02:41.542Z,101271.56
2023-01-13T23:05:08.812Z,101275.03
2023-01-13T23:07:36.096Z,101267.25
2023-01-13T23:10:03.978Z,101262.06
2023-01-13T23:12:30.622Z,101255.16
2023-01-13T23:14:57.179Z,101251.69
2023-01-13T23:17:23.665Z,101252.53
2023-01-13T23:19:50.172Z,101214.56
2023-01-13T23:22:16.827Z,101245.63
2023-01-13T23:24:43.269Z,101230.94
2023-01-13T23:27:09.843Z,101201.59
2023-01-13T23:29:36.680Z,101212.78
2023-01-13T23:32:05.743Z,101230.91
2023-01-13T23:34:32.309Z,101217.06
2023-01-13T23:36:58.882Z,101216.19
2023-01-13T23:39:25.479Z,101223.97
2023-01-13T23:41:52.041Z,101210.09
2023-01-13T23:44:18.539Z,101202.28
2023-01-13T23:46:45.054Z,101179.00
2023-01-13T23:49:11.578Z,101183.28
2023-01-13T23:51:38.201Z,101194.44
2023-01-13T23:54:05.257Z,101155.59
2023-01-13T23:56:31.859Z,101172.00
2023-01-13T23:58:59.069Z,101174.53
